sensor_id;sensor_type;location;lat;lon;timestamp;pressure;altitude;pressure_sealevel;temperature;humidity
43701;BME280;58809;47.984;7.964;2022-10-31T00:00:18;97673.91;;;10.26;100.00
43701;BME280;58809;47.984;7.964;2022-10-31T00:03:20;97673.75;;;10.28;100.00
43701;BME280;58809;47.984;7.964;2022-10-31T00:06:22;97668.25;;;10.29;100.00
43701;BME280;58809;47.984;7.964;2022-10-31T00:09:24;97673.75;;;10.28;100.00
43701;BME280;58809;47.984;7.964;2022-10-31T00:12:26;97667.44;;;10.29;100.00
43701;BME280;58809;47.984;7.964;2022-10-31T00:15:28;97665.16;;;10.17;100.00
43701;BME280;58809;47.984;7.964;2022-10-31T00:18:29;97671.09;;;10.11;100.00
43701;BME280;58809;47.984;7.964;2022-10-31T00:21:31;97665.81;;;10.11;100.00
43701;BME280;58809;47.984;7.964;2022-10-31T00:24:33;97671.41;;;10.16;100.00
43701;BME280;58809;47.984;7.964;2022-10-31T00:27:35;97672.09;;;10.18;100.00
43701;BME280;58809;47.984;7.964;2022-10-31T00:30:36;97665.31;;;10.16;100.00
43701;BME280;58809;47.984;7.964;2022-10-31T00:33:39;97661.34;;;10.12;100.00
43701;BME280;58809;47.984;7.964;2022-10-31T00:36:41;97663.50;;;10.08;100.00
43701;BME280;58809;47.984;7.964;2022-10-31T00:39:47;97665.16;;;10.09;100.00
43701;BME280;58809;47.984;7.964;2022-10-31T00:42:50;97654.59;;;10.09;100.00
43701;BME280;58809;47.984;7.964;2022-10-31T00:45:51;97658.88;;;10.10;100.00
43701;BME280;58809;47.984;7.964;2022-10-31T00:48:54;97658.88;;;10.10;100.00
43701;BME280;58809;47.984;7.964;2022-10-31T00:51:55;97656.06;;;10.12;100.00
43701;BME280;58809;47.984;7.964;2022-10-31T00:54:57;97655.56;;;10.08;100.00
43701;BME280;58809;47.984;7.964;2022-10-31T00:57:58;97661.53;;;10.02;100.00
43701;BME280;58809;47.984;7.964;2022-10-31T01:01:01;97664.34;;;10.00;100.00
43701;BME280;58809;47.984;7.964;2022-10-31T01:04:02;97660.03;;;9.99;100.00
43701;BME280;58809;47.984;7.964;2022-10-31T01:07:06;97655.75;;;9.98;100.00
43701;BME280;58809;47.984;7.964;2022-10-31T01:10:09;97651.44;;;9.97;100.00
43701;BME280;58809;47.984;7.964;2022-10-31T01:13:11;97648.63;;;9.91;100.00
43701;BME280;58809;47.984;7.964;2022-10-31T01:16:15;97652.59;;;9.87;100.00
43701;BME280;58809;47.984;7.964;2022-10-31T01:19:16;97653.41;;;9.87;100.00
43701;BME280;58809;47.984;7.964;2022-10-31T01:22:18;97641.38;;;9.85;100.00
43701;BME280;58809;47.984;7.964;2022-10-31T01:25:19;97633.47;;;9.76;100.00
43701;BME280;58809;47.984;7.964;2022-10-31T01:28:22;97636.09;;;9.76;100.00
43701;BME280;58809;47.984;7.964;2022-10-31T01:31:32;97653.44;;;9.79;100.00
43701;BME280;58809;47.984;7.964;2022-10-31T01:34:34;97636.91;;;9.77;100.00
43701;BME280;58809;47.984;7.964;2022-10-31T01:37:35;97643.03;;;9.77;100.00
43701;BME280;58809;47.984;7.964;2022-10-31T01:40:37;97636.41;;;9.73;100.00
43701;BME280;58809;47.984;7.964;2022-10-31T01:46:47;97637.22;;;9.74;100.00
43701;BME280;58809;47.984;7.964;2022-10-31T01:49:53;97636.09;;;9.76;100.00
43701;BME280;58809;47.984;7.964;2022-10-31T01:52:56;97635.91;;;9.78;100.00
43701;BME280;58809;47.984;7.964;2022-10-31T01:55:59;97630.81;;;9.76;100.00
43701;BME280;58809;47.984;7.964;2022-10-31T01:59:02;97627.16;;;9.77;100.00
43701;BME280;58809;47.984;7.964;2022-10-31T02:02:07;97625.34;;;9.78;100.00
43701;BME280;58809;47.984;7.964;2022-10-31T02:05:13;97625.19;;;9.79;100.00
43701;BME280;58809;47.984;7.964;2022-10-31T02:08:20;97625.84;;;9.73;100.00
43701;BME280;58809;47.984;7.964;2022-10-31T02:11:24;97625.69;;;9.75;100.00
43701;BME280;58809;47.984;7.964;2022-10-31T02:14:29;97626.84;;;9.80;100.00
43701;BME280;58809;47.984;7.964;2022-10-31T02:17:32;97624.84;;;9.82;100.00
43701;BME280;58809;47.984;7.964;2022-10-31T02:20:44;97615.44;;;9.80;100.00
43701;BME280;58809;47.984;7.964;2022-10-31T02:33:55;97610.31;;;9.78;100.00
43701;BME280;58809;47.984;7.964;2022-10-31T02:37:04;97612.97;;;9.78;100.00
43701;BME280;58809;47.984;7.964;2022-10-31T02:40:17;97611.97;;;9.79;100.00
43701;BME280;58809;47.984;7.964;2022-10-31T02:44:29;97607.69;;;9.78;100.00
43701;BME280;58809;47.984;7.964;2022-10-31T02:47:09;97610.00;;;9.73;100.00
43701;BME280;58809;47.984;7.964;2022-10-31T02:50:22;97602.72;;;9.75;100.00
43701;BME280;58809;47.984;7.964;2022-10-31T02:53:25;97598.09;;;9.77;100.00
43701;BME280;58809;47.984;7.964;2022-10-31T02:56:27;97595.44;;;9.77;100.00
43701;BME280;58809;47.984;7.964;2022-10-31T02:59:31;97600.88;;;9.76;100.00
43701;BME280;58809;47.984;7.964;2022-10-31T03:10:03;97597.13;;;9.62;100.00
43701;BME280;58809;47.984;7.964;2022-10-31T03:16:23;97591.34;;;9.58;100.00
43701;BME280;58809;47.984;7.964;2022-10-31T03:19:33;97594.47;;;9.62;100.00
43701;BME280;58809;47.984;7.964;2022-10-31T03:22:37;97590.81;;;9.63;100.00
43701;BME280;58809;47.984;7.964;2022-10-31T03:25:41;97587.19;;;9.64;100.00
43701;BME280;58809;47.984;7.964;2022-10-31T03:28:47;97584.22;;;9.59;100.00
43701;BME280;58809;47.984;7.964;2022-10-31T03:31:59;97581.91;;;9.56;100.00
43701;BME280;58809;47.984;7.964;2022-10-31T03:35:04;97583.56;;;9.49;100.00
43701;BME280;58809;47.984;7.964;2022-10-31T03:38:06;97577.13;;;9.43;100.00
43701;BME280;58809;47.984;7.964;2022-10-31T03:41:16;97575.81;;;9.47;100.00
43701;BME280;58809;47.984;7.964;2022-10-31T03:44:21;97581.41;;;9.52;100.00
43701;BME280;58809;47.984;7.964;2022-10-31T03:47:31;97585.41;;;9.56;100.00
43701;BME280;58809;47.984;7.964;2022-10-31T03:54:23;97584.56;;;9.64;100.00
43701;BME280;58809;47.984;7.964;2022-10-31T03:57:27;97580.91;;;9.65;100.00
43701;BME280;58809;47.984;7.964;2022-10-31T04:00:32;97578.25;;;9.65;100.00
43701;BME280;58809;47.984;7.964;2022-10-31T04:03:36;97572.84;;;9.58;100.00
43701;BME280;58809;47.984;7.964;2022-10-31T04:06:42;97572.00;;;9.58;100.00
43701;BME280;58809;47.984;7.964;2022-10-31T04:09:46;97565.56;;;9.60;100.00
43701;BME280;58809;47.984;7.964;2022-10-31T04:12:56;97567.03;;;9.63;100.00
43701;BME280;58809;47.984;7.964;2022-10-31T04:16:06;97557.66;;;9.60;100.00
43701;BME280;58809;47.984;7.964;2022-10-31T04:19:14;97566.88;;;9.64;100.00
43701;BME280;58809;47.984;7.964;2022-10-31T04:22:16;97562.13;;;9.60;100.00
43701;BME280;58809;47.984;7.964;2022-10-31T04:25:18;97564.91;;;9.58;100.00
43701;BME280;58809;47.984;7.964;2022-10-31T04:28:20;97559.78;;;9.57;100.00
43701;BME280;58809;47.984;7.964;2022-10-31T04:31:22;97559.47;;;9.52;100.00
43701;BME280;58809;47.984;7.964;2022-10-31T04:34:24;97559.97;;;9.47;100.00
43701;BME280;58809;47.984;7.964;2022-10-31T04:37:25;97558.47;;;9.53;100.00
43701;BME280;58809;47.984;7.964;2022-10-31T04:40:27;97558.78;;;9.58;100.00
43701;BME280;58809;47.984;7.964;2022-10-31T04:43:48;97551.88;;;9.57;100.00
43701;BME280;58809;47.984;7.964;2022-10-31T04:46:51;97551.34;;;9.61;100.00
43701;BME280;58809;47.984;7.964;2022-10-31T04:49:52;97555.66;;;9.62;100.00
43701;BME280;58809;47.984;7.964;2022-10-31T04:52:55;97547.06;;;9.60;100.00
43701;BME280;58809;47.984;7.964;2022-10-31T04:56:00;97550.19;;;9.56;100.00
43701;BME280;58809;47.984;7.964;2022-10-31T04:59:11;97555.34;;;9.49;100.00
43701;BME280;58809;47.984;7.964;2022-10-31T05:02:21;97556.63;;;9.45;100.00
43701;BME280;58809;47.984;7.964;2022-10-31T05:05:30;97548.56;;;9.38;100.00
43701;BME280;58809;47.984;7.964;2022-10-31T05:08:35;97549.91;;;9.34;100.00
43701;BME280;58809;47.984;7.964;2022-10-31T05:11:41;97545.28;;;9.36;100.00
43701;BME280;58809;47.984;7.964;2022-10-31T05:14:58;97546.09;;;9.37;100.00
43701;BME280;58809;47.984;7.964;2022-10-31T05:18:34;97546.91;;;9.37;100.00
43701;BME280;58809;47.984;7.964;2022-10-31T05:21:54;97540.81;;;9.37;100.00
43701;BME280;58809;47.984;7.964;2022-10-31T05:24:57;97540.16;;;9.35;100.00
43701;BME280;58809;47.984;7.964;2022-10-31T05:27:58;97542.63;;;9.36;100.00
43701;BME280;58809;47.984;7.964;2022-10-31T05:31:00;97547.06;;;9.36;100.00
43701;BME280;58809;47.984;7.964;2022-10-31T05:34:02;97540.63;;;9.30;100.00
43701;BME280;58809;47.984;7.964;2022-10-31T05:37:28;97542.59;;;9.28;100.00
43701;BME280;58809;47.984;7.964;2022-10-31T05:40:30;97539.66;;;9.31;100.00
43701;BME280;58809;47.984;7.964;2022-10-31T05:43:31;97545.28;;;9.36;100.00
43701;BME280;58809;47.984;7.964;2022-10-31T05:46:34;97539.47;;;9.41;100.00
43701;BME280;58809;47.984;7.964;2022-10-31T05:49:44;97537.00;;;9.48;100.00
43701;BME280;58809;47.984;7.964;2022-10-31T05:53:18;97539.50;;;9.49;100.00
43701;BME280;58809;47.984;7.964;2022-10-31T05:56:20;97535.84;;;9.50;100.00
43701;BME280;58809;47.984;7.964;2022-10-31T05:59:21;97539.34;;;9.51;100.00
43701;BME280;58809;47.984;7.964;2022-10-31T06:02:23;97545.09;;;9.54;100.00
43701;BME280;58809;47.984;7.964;2022-10-31T06:05:45;97541.28;;;9.57;100.00
43701;BME280;58809;47.984;7.964;2022-10-31T06:08:54;97543.44;;;9.61;100.00
43701;BME280;58809;47.984;7.964;2022-10-31T06:11:56;97546.22;;;9.68;100.00
43701;BME280;58809;47.984;7.964;2022-10-31T06:14:58;97546.56;;;9.73;100.00
43701;BME280;58809;47.984;7.964;2022-10-31T06:18:01;97541.78;;;9.77;100.00
43701;BME280;58809;47.984;7.964;2022-10-31T06:21:08;97542.25;;;9.80;100.00
43701;BME280;58809;47.984;7.964;2022-10-31T06:24:13;97541.25;;;9.81;100.00
43701;BME280;58809;47.984;7.964;2022-10-31T06:27:28;97549.19;;;9.90;100.00
43701;BME280;58809;47.984;7.964;2022-10-31T06:30:31;97535.66;;;9.93;100.00
43701;BME280;58809;47.984;7.964;2022-10-31T06:33:33;97536.94;;;9.97;100.00
43701;BME280;58809;47.984;7.964;2022-10-31T06:36:35;97538.09;;;10.02;100.00
43701;BME280;58809;47.984;7.964;2022-10-31T06:39:38;97531.94;;;10.10;100.00
43701;BME280;58809;47.984;7.964;2022-10-31T06:42:40;97534.91;;;10.15;100.00
43701;BME280;58809;47.984;7.964;2022-10-31T06:45:43;97543.00;;;10.22;100.00
43701;BME280;58809;47.984;7.964;2022-10-31T06:49:11;97540.47;;;10.29;100.00
43701;BME280;58809;47.984;7.964;2022-10-31T06:52:21;97538.50;;;10.31;100.00
43701;BME280;58809;47.984;7.964;2022-10-31T06:55:26;97538.13;;;10.42;100.00
43701;BME280;58809;47.984;7.964;2022-10-31T06:58:27;97549.34;;;10.52;100.00
43701;BME280;58809;47.984;7.964;2022-10-31T07:01:33;97544.69;;;10.63;100.00
43701;BME280;58809;47.984;7.964;2022-10-31T07:04:35;97539.34;;;10.71;100.00
43701;BME280;58809;47.984;7.964;2022-10-31T07:07:37;97540.13;;;10.79;100.00
43701;BME280;58809;47.984;7.964;2022-10-31T07:10:41;97549.66;;;10.89;100.00
43701;BME280;58809;47.984;7.964;2022-10-31T07:13:43;97551.91;;;11.00;100.00
43701;BME280;58809;47.984;7.964;2022-10-31T07:16:49;97561.28;;;11.11;100.00
43701;BME280;58809;47.984;7.964;2022-10-31T07:19:57;97553.47;;;11.17;100.00
43701;BME280;58809;47.984;7.964;2022-10-31T07:22:58;97544.47;;;11.27;100.00
43701;BME280;58809;47.984;7.964;2022-10-31T07:26:01;97554.81;;;11.36;100.00
43701;BME280;58809;47.984;7.964;2022-10-31T07:29:13;97551.72;;;11.48;100.00
43701;BME280;58809;47.984;7.964;2022-10-31T07:32:15;97555.44;;;11.62;100.00
43701;BME280;58809;47.984;7.964;2022-10-31T07:35:24;97561.31;;;11.72;100.00
43701;BME280;58809;47.984;7.964;2022-10-31T07:38:35;97565.19;;;11.84;100.00
43701;BME280;58809;47.984;7.964;2022-10-31T07:41:38;97567.88;;;11.99;100.00
43701;BME280;58809;47.984;7.964;2022-10-31T07:44:40;97559.69;;;12.09;100.00
43701;BME280;58809;47.984;7.964;2022-10-31T07:48:16;97562.22;;;12.32;100.00
43701;BME280;58809;47.984;7.964;2022-10-31T07:51:36;97561.88;;;12.50;100.00
43701;BME280;58809;47.984;7.964;2022-10-31T07:55:10;97563.59;;;12.58;100.00
43701;BME280;58809;47.984;7.964;2022-10-31T07:58:13;97569.06;;;12.71;100.00
43701;BME280;58809;47.984;7.964;2022-10-31T08:01:15;97571.50;;;12.87;100.00
43701;BME280;58809;47.984;7.964;2022-10-31T08:04:26;97571.03;;;12.99;100.00
43701;BME280;58809;47.984;7.964;2022-10-31T08:07:46;97570.16;;;13.13;100.00
43701;BME280;58809;47.984;7.964;2022-10-31T08:10:54;97563.53;;;13.24;100.00
43701;BME280;58809;47.984;7.964;2022-10-31T08:13:56;97562.31;;;13.41;100.00
43701;BME280;58809;47.984;7.964;2022-10-31T08:16:57;97571.19;;;13.55;100.00
43701;BME280;58809;47.984;7.964;2022-10-31T08:20:07;97566.03;;;13.69;100.00
43701;BME280;58809;47.984;7.964;2022-10-31T08:23:16;97575.53;;;13.84;100.00
43701;BME280;58809;47.984;7.964;2022-10-31T08:26:18;97565.47;;;14.01;100.00
43701;BME280;58809;47.984;7.964;2022-10-31T08:29:20;97568.00;;;14.16;100.00
43701;BME280;58809;47.984;7.964;2022-10-31T08:32:21;97557.63;;;14.28;100.00
43701;BME280;58809;47.984;7.964;2022-10-31T08:35:26;97551.75;;;14.39;99.82
43701;BME280;58809;47.984;7.964;2022-10-31T08:38:48;97550.19;;;14.52;99.43
43701;BME280;58809;47.984;7.964;2022-10-31T08:41:51;97549.03;;;14.61;98.65
43701;BME280;58809;47.984;7.964;2022-10-31T08:44:56;97543.31;;;14.71;98.59
43701;BME280;58809;47.984;7.964;2022-10-31T08:48:04;97547.69;;;14.78;98.75
43701;BME280;58809;47.984;7.964;2022-10-31T08:51:06;97540.31;;;14.87;99.26
43701;BME280;58809;47.984;7.964;2022-10-31T08:54:08;97538.72;;;14.99;98.31
43701;BME280;58809;47.984;7.964;2022-10-31T08:57:10;97549.44;;;15.19;96.95
43701;BME280;58809;47.984;7.964;2022-10-31T09:00:15;97543.91;;;15.34;94.88
43701;BME280;58809;47.984;7.964;2022-10-31T09:03:36;97533.28;;;15.48;94.20
43701;BME280;58809;47.984;7.964;2022-10-31T09:06:38;97536.56;;;15.63;93.12
43701;BME280;58809;47.984;7.964;2022-10-31T09:09:56;97517.28;;;15.74;91.39
43701;BME280;58809;47.984;7.964;2022-10-31T09:12:59;97520.97;;;15.87;89.90
43701;BME280;58809;47.984;7.964;2022-10-31T09:16:01;97518.50;;;15.98;89.15
43701;BME280;58809;47.984;7.964;2022-10-31T09:19:02;97515.59;;;16.13;87.88
43701;BME280;58809;47.984;7.964;2022-10-31T09:22:11;97506.50;;;16.28;87.73
43701;BME280;58809;47.984;7.964;2022-10-31T09:25:13;97507.09;;;16.43;86.68
43701;BME280;58809;47.984;7.964;2022-10-31T09:28:21;97508.47;;;16.59;85.42
43701;BME280;58809;47.984;7.964;2022-10-31T09:31:22;97499.16;;;16.75;83.88
43701;BME280;58809;47.984;7.964;2022-10-31T09:34:24;97497.25;;;16.82;82.92
43701;BME280;58809;47.984;7.964;2022-10-31T09:37:46;97499.69;;;16.97;81.50
43701;BME280;58809;47.984;7.964;2022-10-31T09:40:55;97489.13;;;17.09;79.88
43701;BME280;58809;47.984;7.964;2022-10-31T09:44:43;97487.22;;;17.16;77.70
43701;BME280;58809;47.984;7.964;2022-10-31T09:51:08;97496.00;;;17.23;76.64
43701;BME280;58809;47.984;7.964;2022-10-31T09:54:45;97493.13;;;17.25;75.99
43701;BME280;58809;47.984;7.964;2022-10-31T09:57:48;97497.00;;;17.29;75.79
43701;BME280;58809;47.984;7.964;2022-10-31T10:00:51;97499.06;;;17.27;76.85
43701;BME280;58809;47.984;7.964;2022-10-31T10:03:59;97492.41;;;17.36;77.61
43701;BME280;58809;47.984;7.964;2022-10-31T10:18:37;97483.31;;;18.13;71.61
43701;BME280;58809;47.984;7.964;2022-10-31T10:25:12;97476.47;;;18.17;70.46
43701;BME280;58809;47.984;7.964;2022-10-31T10:28:31;97475.97;;;18.08;68.47
43701;BME280;58809;47.984;7.964;2022-10-31T10:31:42;97471.34;;;17.97;70.22
43701;BME280;58809;47.984;7.964;2022-10-31T10:35:14;97472.47;;;17.64;73.68
43701;BME280;58809;47.984;7.964;2022-10-31T10:39:08;97480.03;;;17.42;75.90
43701;BME280;58809;47.984;7.964;2022-10-31T10:41:49;97473.59;;;17.24;75.70
43701;BME280;58809;47.984;7.964;2022-10-31T10:45:15;97470.44;;;17.02;75.10
43701;BME280;58809;47.984;7.964;2022-10-31T10:48:52;97479.97;;;16.91;75.48
43701;BME280;58809;47.984;7.964;2022-10-31T10:58:52;97470.13;;;16.40;79.94
43701;BME280;58809;47.984;7.964;2022-10-31T11:01:55;97487.41;;;16.38;81.33
43701;BME280;58809;47.984;7.964;2022-10-31T11:04:58;97492.50;;;16.39;81.39
43701;BME280;58809;47.984;7.964;2022-10-31T11:08:02;97495.38;;;16.44;81.14
43701;BME280;58809;47.984;7.964;2022-10-31T11:11:28;97482.00;;;16.51;81.14
43701;BME280;58809;47.984;7.964;2022-10-31T11:14:36;97476.56;;;16.71;80.19
43701;BME280;58809;47.984;7.964;2022-10-31T11:17:48;97472.94;;;16.97;79.15
43701;BME280;58809;47.984;7.964;2022-10-31T11:20:53;97471.47;;;17.33;76.94
43701;BME280;58809;47.984;7.964;2022-10-31T11:27:20;97461.03;;;18.19;74.10
43701;BME280;58809;47.984;7.964;2022-10-31T11:30:22;97463.91;;;18.36;73.53
43701;BME280;58809;47.984;7.964;2022-10-31T11:33:36;97438.59;;;18.50;73.64
43701;BME280;58809;47.984;7.964;2022-10-31T11:36:42;97437.00;;;18.61;73.24
43701;BME280;58809;47.984;7.964;2022-10-31T11:39:49;97442.13;;;18.81;72.96
43701;BME280;58809;47.984;7.964;2022-10-31T11:42:57;97433.81;;;19.13;72.11
43701;BME280;58809;47.984;7.964;2022-10-31T11:46:11;97422.31;;;19.48;69.81
43701;BME280;58809;47.984;7.964;2022-10-31T11:49:42;97418.56;;;19.49;67.54
43701;BME280;58809;47.984;7.964;2022-10-31T11:52:45;97420.09;;;19.33;68.56
43701;BME280;58809;47.984;7.964;2022-10-31T11:55:47;97401.19;;;19.28;68.89
43701;BME280;58809;47.984;7.964;2022-10-31T11:59:05;97396.38;;;19.06;68.60
43701;BME280;58809;47.984;7.964;2022-10-31T12:02:18;97384.25;;;19.03;68.44
43701;BME280;58809;47.984;7.964;2022-10-31T12:05:25;97379.81;;;19.09;67.77
43701;BME280;58809;47.984;7.964;2022-10-31T12:08:34;97368.28;;;19.09;67.30
43701;BME280;58809;47.984;7.964;2022-10-31T12:12:09;97362.19;;;18.90;68.05
43701;BME280;58809;47.984;7.964;2022-10-31T12:15:31;97350.91;;;18.99;68.39
43701;BME280;58809;47.984;7.964;2022-10-31T12:18:59;97332.84;;;19.18;67.83
43701;BME280;58809;47.984;7.964;2022-10-31T12:32:58;97307.53;;;19.14;68.58
43701;BME280;58809;47.984;7.964;2022-10-31T12:36:15;97299.84;;;19.18;68.84
43701;BME280;58809;47.984;7.964;2022-10-31T12:39:25;97306.34;;;19.22;68.77
43701;BME280;58809;47.984;7.964;2022-10-31T12:45:49;97302.53;;;19.18;66.90
43701;BME280;58809;47.984;7.964;2022-10-31T12:49:09;97300.63;;;19.07;67.25
43701;BME280;58809;47.984;7.964;2022-10-31T12:55:29;97292.38;;;18.96;66.63
43701;BME280;58809;47.984;7.964;2022-10-31T12:58:46;97275.91;;;19.04;65.46
43701;BME280;58809;47.984;7.964;2022-10-31T13:02:13;97278.84;;;19.15;65.10
43701;BME280;58809;47.984;7.964;2022-10-31T13:05:19;97257.47;;;19.32;64.62
43701;BME280;58809;47.984;7.964;2022-10-31T13:08:33;97248.47;;;19.50;64.02
43701;BME280;58809;47.984;7.964;2022-10-31T13:11:40;97243.66;;;19.64;63.37
43701;BME280;58809;47.984;7.964;2022-10-31T13:14:51;97242.44;;;19.83;62.38
43701;BME280;58809;47.984;7.964;2022-10-31T13:17:57;97242.59;;;19.76;63.72
43701;BME280;58809;47.984;7.964;2022-10-31T13:21:03;97240.97;;;19.64;64.85
43701;BME280;58809;47.984;7.964;2022-10-31T13:24:15;97237.44;;;19.63;64.55
43701;BME280;58809;47.984;7.964;2022-10-31T13:27:23;97245.25;;;19.65;62.05
43701;BME280;58809;47.984;7.964;2022-10-31T13:30:37;97244.47;;;19.64;61.12
43701;BME280;58809;47.984;7.964;2022-10-31T13:33:43;97231.59;;;19.66;62.46
43701;BME280;58809;47.984;7.964;2022-10-31T13:46:59;97214.53;;;19.72;66.69
43701;BME280;58809;47.984;7.964;2022-10-31T13:50:24;97207.50;;;19.95;67.02
43701;BME280;58809;47.984;7.964;2022-10-31T13:53:57;97204.41;;;20.20;66.90
43701;BME280;58809;47.984;7.964;2022-10-31T13:56:59;97204.69;;;20.52;66.14
43701;BME280;58809;47.984;7.964;2022-10-31T14:03:25;97203.31;;;20.67;65.08
43701;BME280;58809;47.984;7.964;2022-10-31T14:07:06;97199.22;;;20.30;65.82
43701;BME280;58809;47.984;7.964;2022-10-31T14:10:28;97193.50;;;19.93;67.13
43701;BME280;58809;47.984;7.964;2022-10-31T14:13:35;97184.56;;;19.75;67.92
43701;BME280;58809;47.984;7.964;2022-10-31T14:16:44;97184.44;;;19.82;68.01
43701;BME280;58809;47.984;7.964;2022-10-31T14:20:24;97171.56;;;19.84;68.38
43701;BME280;58809;47.984;7.964;2022-10-31T14:26:33;97158.94;;;19.56;70.00
43701;BME280;58809;47.984;7.964;2022-10-31T14:29:35;97162.13;;;19.53;70.96
43701;BME280;58809;47.984;7.964;2022-10-31T14:32:38;97160.94;;;19.49;71.59
43701;BME280;58809;47.984;7.964;2022-10-31T14:35:54;97155.69;;;19.54;71.63
43701;BME280;58809;47.984;7.964;2022-10-31T14:43:22;97144.09;;;19.36;73.34
43701;BME280;58809;47.984;7.964;2022-10-31T14:46:42;97142.94;;;20.24;72.99
43701;BME280;58809;47.984;7.964;2022-10-31T14:50:09;97144.34;;;20.99;70.88
43701;BME280;58809;47.984;7.964;2022-10-31T14:53:20;97144.94;;;21.72;66.08
43701;BME280;58809;47.984;7.964;2022-10-31T14:56:27;97134.16;;;21.01;67.51
43701;BME280;58809;47.984;7.964;2022-10-31T14:59:33;97133.75;;;20.36;69.74
43701;BME280;58809;47.984;7.964;2022-10-31T15:06:00;97135.03;;;19.54;73.92
43701;BME280;58809;47.984;7.964;2022-10-31T15:09:03;97132.16;;;19.44;74.37
43701;BME280;58809;47.984;7.964;2022-10-31T15:12:27;97145.31;;;19.17;75.45
43701;BME280;58809;47.984;7.964;2022-10-31T15:15:29;97142.22;;;18.96;76.40
43701;BME280;58809;47.984;7.964;2022-10-31T15:18:32;97131.13;;;18.69;77.63
43701;BME280;58809;47.984;7.964;2022-10-31T15:21:43;97142.09;;;18.32;79.28
43701;BME280;58809;47.984;7.964;2022-10-31T15:24:48;97128.47;;;18.10;80.32
43701;BME280;58809;47.984;7.964;2022-10-31T15:27:51;97127.97;;;17.89;81.21
43701;BME280;58809;47.984;7.964;2022-10-31T15:30:55;97128.94;;;17.77;82.32
43701;BME280;58809;47.984;7.964;2022-10-31T15:34:03;97142.00;;;17.55;83.92
43701;BME280;58809;47.984;7.964;2022-10-31T15:37:11;97138.41;;;17.30;86.03
43701;BME280;58809;47.984;7.964;2022-10-31T15:40:16;97130.50;;;17.05;88.15
43701;BME280;58809;47.984;7.964;2022-10-31T15:43:20;97141.50;;;16.97;89.43
43701;BME280;58809;47.984;7.964;2022-10-31T15:46:24;97140.97;;;16.88;90.41
43701;BME280;58809;47.984;7.964;2022-10-31T15:49:36;97152.47;;;16.70;91.53
43701;BME280;58809;47.984;7.964;2022-10-31T15:52:42;97149.69;;;16.59;92.65
43701;BME280;58809;47.984;7.964;2022-10-31T15:56:00;97148.53;;;16.48;93.86
43701;BME280;58809;47.984;7.964;2022-10-31T15:59:02;97143.63;;;16.45;94.48
43701;BME280;58809;47.984;7.964;2022-10-31T16:02:10;97140.66;;;16.34;95.33
43701;BME280;58809;47.984;7.964;2022-10-31T16:05:17;97150.41;;;16.22;96.96
43701;BME280;58809;47.984;7.964;2022-10-31T16:11:36;97132.81;;;15.89;99.12
43701;BME280;58809;47.984;7.964;2022-10-31T16:14:39;97155.25;;;15.82;100.00
43701;BME280;58809;47.984;7.964;2022-10-31T16:17:45;97159.41;;;15.64;100.00
43701;BME280;58809;47.984;7.964;2022-10-31T16:20:49;97156.44;;;15.47;100.00
43701;BME280;58809;47.984;7.964;2022-10-31T16:24:00;97165.50;;;15.39;100.00
43701;BME280;58809;47.984;7.964;2022-10-31T16:27:17;97167.78;;;15.29;100.00
43701;BME280;58809;47.984;7.964;2022-10-31T16:30:40;97183.22;;;15.20;100.00
43701;BME280;58809;47.984;7.964;2022-10-31T16:33:48;97181.00;;;15.11;100.00
43701;BME280;58809;47.984;7.964;2022-10-31T16:36:50;97193.31;;;15.05;100.00
43701;BME280;58809;47.984;7.964;2022-10-31T16:39:52;97192.50;;;14.98;100.00
43701;BME280;58809;47.984;7.964;2022-10-31T16:42:56;97186.38;;;14.91;100.00
43701;BME280;58809;47.984;7.964;2022-10-31T16:46:01;97188.47;;;14.82;100.00
43701;BME280;58809;47.984;7.964;2022-10-31T16:49:09;97213.69;;;14.73;100.00
43701;BME280;58809;47.984;7.964;2022-10-31T16:52:11;97215.53;;;14.59;100.00
43701;BME280;58809;47.984;7.964;2022-10-31T16:55:14;97221.66;;;14.59;100.00
43701;BME280;58809;47.984;7.964;2022-10-31T16:58:23;97214.28;;;14.55;100.00
43701;BME280;58809;47.984;7.964;2022-10-31T17:01:25;97204.03;;;14.52;100.00
43701;BME280;58809;47.984;7.964;2022-10-31T17:04:29;97208.13;;;14.41;100.00
43701;BME280;58809;47.984;7.964;2022-10-31T17:07:31;97227.19;;;14.31;100.00
43701;BME280;58809;47.984;7.964;2022-10-31T17:10:33;97233.53;;;14.23;100.00
43701;BME280;58809;47.984;7.964;2022-10-31T17:13:35;97234.31;;;14.17;100.00
43701;BME280;58809;47.984;7.964;2022-10-31T17:16:36;97232.69;;;14.16;100.00
43701;BME280;58809;47.984;7.964;2022-10-31T17:19:38;97247.44;;;14.19;100.00
43701;BME280;58809;47.984;7.964;2022-10-31T17:22:39;97238.84;;;14.17;100.00
43701;BME280;58809;47.984;7.964;2022-10-31T17:25:42;97232.69;;;14.10;100.00
43701;BME280;58809;47.984;7.964;2022-10-31T17:28:45;97242.91;;;13.99;100.00
43701;BME280;58809;47.984;7.964;2022-10-31T17:31:46;97251.06;;;13.91;100.00
43701;BME280;58809;47.984;7.964;2022-10-31T17:34:48;97256.34;;;13.84;100.00
43701;BME280;58809;47.984;7.964;2022-10-31T17:37:49;97243.44;;;13.75;100.00
43701;BME280;58809;47.984;7.964;2022-10-31T17:40:51;97239.13;;;13.67;100.00
43701;BME280;58809;47.984;7.964;2022-10-31T17:43:56;97249.75;;;13.60;100.00
43701;BME280;58809;47.984;7.964;2022-10-31T17:46:58;97255.25;;;13.52;100.00
43701;BME280;58809;47.984;7.964;2022-10-31T17:50:00;97265.03;;;13.45;100.00
43701;BME280;58809;47.984;7.964;2022-10-31T17:53:01;97284.03;;;13.42;100.00
43701;BME280;58809;47.984;7.964;2022-10-31T17:56:05;97275.00;;;13.36;100.00
43701;BME280;58809;47.984;7.964;2022-10-31T17:59:07;97276.22;;;13.34;100.00
43701;BME280;58809;47.984;7.964;2022-10-31T18:02:10;97291.72;;;13.30;100.00
43701;BME280;58809;47.984;7.964;2022-10-31T18:05:12;97268.38;;;13.25;100.00
43701;BME280;58809;47.984;7.964;2022-10-31T18:08:14;97264.59;;;13.13;100.00
43701;BME280;58809;47.984;7.964;2022-10-31T18:11:19;97289.31;;;13.07;100.00